Time;durP1;ratioP1;P1;durP2;ratioP2;P2;SDS_P1;SDS_P2;PMS_P1;PMS_P2;Temp;Humidity;BMP_temperature;BMP_pressure;BME280_temperature;BME280_humidity;BME280_pressure;Samples;Min_cycle;Max_cycle;Signal;HPM_P1;HPM_P2
2023/05/20 00:00:45;;;;;;;;;;;;;;;;;;6100062;23;19924;-79
2023/05/20 00:03:11;;;;;;;;;;;;;;;;;;6100249;23;19924;-79
2023/05/20 00:05:40;;;;;;;;;;;;;;;;;;6075206;23;19921;-79
2023/05/20 00:08:08;;;;;;;;;;;;;;;;;;6076982;23;19921;-79
2023/05/20 00:10:35;;;;;;;;;;;;;;;;;;6075606;23;19928;-79
2023/05/20 00:13:02;;;;;;;;;;;;;;;;;;6101300;23;19928;-79
2023/05/20 00:15:31;;;;;;;;;;;;;;;;;;6099512;23;19921;-79
2023/05/20 00:18:00;;;;;;;;;;;;;;;;;;6101990;23;19927;-79
2023/05/20 00:20:30;;;;;;;;;;;;;;;;;;6082173;23;19943;-80
2023/05/20 00:23:00;;;;;;;;;;;;;;;;;;6109510;23;19924;-79
2023/05/20 00:25:30;;;;;;;;;;;;;;;;;;6099748;23;19921;-79
2023/05/20 00:28:00;;;;;;;;;;;;;;;;;;6100336;23;19928;-79
2023/05/20 00:30:27;;;;;;;;;;;;;;;;;;6076249;23;19928;-79
2023/05/20 00:32:56;;;;;;;;;;;;;;;;;;6125558;23;19921;-79
2023/05/20 00:35:29;;;;;;;;;;;;;;;;;;6076309;23;20243;-79
2023/05/20 00:38:03;;;;;;;;;;;;;;;;;;6109761;23;19925;-79
2023/05/20 00:40:34;;;;;;;;;;;;;;;;;;6075905;23;19921;-79
2023/05/20 00:43:04;;;;;;;;;;;;;;;;;;6077084;23;19921;-79
2023/05/20 00:45:31;;;;;;;;;;;;;;;;;;6099618;23;19921;-79
2023/05/20 00:48:02;;;;;;;;;;;;;;;;;;6075834;23;20372;-79
2023/05/20 00:50:32;;;;;;;;;;;;;;;;;;6100034;23;20361;-80
2023/05/20 00:52:59;;;;;;;;;;;;;;;;;;6075438;23;19925;-80
2023/05/20 00:55:28;;;;;;;;;;;;;;;;;;6100335;23;20265;-79
2023/05/20 00:57:55;;;;;;;;;;;;;;;;;;6074522;23;19925;-79
2023/05/20 01:00:24;;;;;;;;;;;;;;;;;;6123038;23;19921;-79
2023/05/20 01:02:51;;;;;;;;;;;;;;;;;;6101093;23;19921;-80
2023/05/20 01:05:19;;;;;;;;;;;;;;;;;;6126914;23;19921;-80
2023/05/20 01:07:46;;;;;;;;;;;;;;;;;;6099901;23;19928;-80
2023/05/20 01:10:13;;;;;;;;;;;;;;;;;;6075346;23;19928;-80
2023/05/20 01:12:42;;;;;;;;;;;;;;;;;;6076420;23;20250;-80
2023/05/20 01:15:12;;;;;;;;;;;;;;;;;;6076337;23;19921;-79
2023/05/20 01:17:40;;;;;;;;;;;;;;;;;;6077411;23;19928;-80
2023/05/20 01:20:13;;;;;;;;;;;;;;;;;;6077264;23;19929;-79
2023/05/20 01:22:48;;;;;;;;;;;;;;;;;;6101435;23;19921;-79
2023/05/20 01:25:15;;;;;;;;;;;;;;;;;;6100308;23;19920;-79
2023/05/20 01:27:45;;;;;;;;;;;;;;;;;;6076481;23;19932;-79
2023/05/20 01:30:12;;;;;;;;;;;;;;;;;;6127402;23;19932;-79
2023/05/20 01:32:43;;;;;;;;;;;;;;;;;;6078335;23;19925;-79
2023/05/20 01:35:17;;;;;;;;;;;;;;;;;;6077743;23;19921;-79
2023/05/20 01:37:46;;;;;;;;;;;;;;;;;;6136197;23;19928;-79
2023/05/20 01:40:15;;;;;;;;;;;;;;;;;;6075281;23;20376;-79
2023/05/20 01:42:45;;;;;;;;;;;;;;;;;;6111323;23;19921;-79
2023/05/20 01:45:19;;;;;;;;;;;;;;;;;;6112434;23;19924;-79
2023/05/20 01:47:49;;;;;;;;;;;;;;;;;;6078192;23;19924;-79
2023/05/20 01:50:17;;;;;;;;;;;;;;;;;;6100080;23;19921;-79
2023/05/20 01:52:46;;;;;;;;;;;;;;;;;;6077054;23;19921;-79
2023/05/20 01:55:18;;;;;;;;;;;;;;;;;;6100839;23;19921;-79
2023/05/20 01:57:46;;;;;;;;;;;;;;;;;;6077595;23;19928;-79
2023/05/20 02:00:15;;;;;;;;;;;;;;;;;;6075992;23;19920;-79
2023/05/20 02:02:44;;;;;;;;;;;;;;;;;;6077573;23;19921;-79
2023/05/20 02:05:12;;;;;;;;;;;;;;;;;;6102073;23;19925;-79
2023/05/20 02:07:45;;;;;;;;;;;;;;;;;;6076943;23;19925;-80
2023/05/20 02:10:13;;;;;;;;;;;;;;;;;;6075206;23;19927;-80
2023/05/20 02:12:42;;;;;;;;;;;;;;;;;;6101618;23;19921;-80
2023/05/20 02:15:15;;;;;;;;;;;;;;;;;;6078506;23;20253;-79
2023/05/20 02:17:43;;;;;;;;;;;;;;;;;;6101141;23;19925;-79
2023/05/20 02:20:10;;;;;;;;;;;;;;;;;;6125109;23;19925;-80
2023/05/20 02:22:37;;;;;;;;;;;;;;;;;;6077559;23;19921;-80
2023/05/20 02:25:05;;;;;;;;;;;;;;;;;;6077807;23;19921;-80
2023/05/20 02:27:34;;;;;;;;;;;;;;;;;;6075668;23;20257;-80
2023/05/20 02:30:02;;;;;;;;;;;;;;;;;;6075911;23;19921;-80
2023/05/20 02:32:32;;;;;;;;;;;;;;;;;;6078068;23;19932;-80
2023/05/20 02:35:02;;;;;;;;;;;;;;;;;;6078725;23;19921;-80
2023/05/20 02:37:31;;;;;;;;;;;;;;;;;;6078094;23;19921;-80
2023/05/20 02:39:58;;;;;;;;;;;;;;;;;;6077120;23;19921;-80
2023/05/20 02:42:28;;;;;;;;;;;;;;;;;;6077945;23;19921;-80
2023/05/20 02:44:57;;;;;;;;;;;;;;;;;;6103153;23;19921;-81
2023/05/20 02:47:27;;;;;;;;;;;;;;;;;;6078487;23;19944;-81
2023/05/20 02:49:56;;;;;;;;;;;;;;;;;;6077919;23;19921;-80
2023/05/20 02:52:23;;;;;;;;;;;;;;;;;;6098545;23;19921;-81
2023/05/20 02:54:56;;;;;;;;;;;;;;;;;;6102193;23;19936;-81
2023/05/20 02:57:26;;;;;;;;;;;;;;;;;;6110665;23;19921;-81
2023/05/20 02:59:56;;;;;;;;;;;;;;;;;;6076970;23;19925;-81
2023/05/20 03:02:29;;;;;;;;;;;;;;;;;;6111226;23;19936;-81
2023/05/20 03:04:55;;;;;;;;;;;;;;;;;;6078445;23;19921;-80
2023/05/20 03:07:22;;;;;;;;;;;;;;;;;;6102352;23;19925;-80
2023/05/20 03:09:49;;;;;;;;;;;;;;;;;;6077568;23;19943;-81
2023/05/20 03:12:26;;;;;;;;;;;;;;;;;;6111820;23;20342;-81
2023/05/20 03:14:54;;;;;;;;;;;;;;;;;;6076937;23;19967;-81
2023/05/20 03:17:22;;;;;;;;;;;;;;;;;;6102779;23;19928;-81
2023/05/20 03:19:50;;;;;;;;;;;;;;;;;;6100583;23;19921;-80
2023/05/20 03:22:17;;;;;;;;;;;;;;;;;;6110590;23;19921;-80
2023/05/20 03:24:45;;;;;;;;;;;;;;;;;;6077006;23;19944;-80
2023/05/20 03:27:20;;;;;;;;;;;;;;;;;;6104665;23;19905;-82
2023/05/20 03:29:50;;;;;;;;;;;;;;;;;;6098038;23;19921;-82
2023/05/20 03:32:21;;;;;;;;;;;;;;;;;;6072463;23;19921;-82
2023/05/20 03:34:49;;;;;;;;;;;;;;;;;;6072841;23;19924;-82
2023/05/20 03:37:20;;;;;;;;;;;;;;;;;;6073617;23;19921;-82
2023/05/20 03:39:47;;;;;;;;;;;;;;;;;;6073540;23;19944;-82
2023/05/20 03:42:14;;;;;;;;;;;;;;;;;;6097287;23;19932;-82
2023/05/20 03:44:42;;;;;;;;;;;;;;;;;;6074023;23;19921;-82
2023/05/20 03:47:14;;;;;;;;;;;;;;;;;;6074658;23;19921;-82
2023/05/20 03:49:46;;;;;;;;;;;;;;;;;;6077102;23;19921;-82
2023/05/20 03:52:16;;;;;;;;;;;;;;;;;;6099294;23;20334;-82
2023/05/20 03:54:43;;;;;;;;;;;;;;;;;;6124060;23;19921;-82
2023/05/20 03:57:10;;;;;;;;;;;;;;;;;;6128751;23;19921;-82
2023/05/20 03:59:37;;;;;;;;;;;;;;;;;;6107832;23;20204;-82
2023/05/20 04:02:08;;;;;;;;;;;;;;;;;;6140889;23;19928;-82
2023/05/20 04:04:35;;;;;;;;;;;;;;;;;;6131082;23;19921;-82
2023/05/20 04:07:03;;;;;;;;;;;;;;;;;;6103502;23;19920;-82
2023/05/20 04:09:33;;;;;;;;;;;;;;;;;;6104060;23;19922;-82
2023/05/20 04:12:00;;;;;;;;;;;;;;;;;;6127440;23;19921;-82
2023/05/20 04:14:28;;;;;;;;;;;;;;;;;;6102975;23;19926;-82
2023/05/20 04:16:58;;;;;;;;;;;;;;;;;;6104747;23;19920;-82
2023/05/20 04:19:27;;;;;;;;;;;;;;;;;;6104274;23;19921;-82
2023/05/20 04:21:56;;;;;;;;;;;;;;;;;;6104822;23;19925;-82
2023/05/20 04:24:26;;;;;;;;;;;;;;;;;;6130599;23;19921;-82
2023/05/20 04:26:55;;;;;;;;;;;;;;;;;;6105605;23;19927;-82
2023/05/20 04:29:22;;;;;;;;;;;;;;;;;;6104856;23;19927;-83
2023/05/20 04:31:57;;;;;;;;;;;;;;;;;;6106239;23;19928;-83
2023/05/20 04:34:25;;;;;;;;;;;;;;;;;;6105483;23;19920;-82
2023/05/20 04:36:59;;;;;;;;;;;;;;;;;;6103249;23;19928;-83
2023/05/20 04:39:30;;;;;;;;;;;;;;;;;;6104614;23;19921;-83
2023/05/20 04:41:59;;;;;;;;;;;;;;;;;;6103868;23;19967;-82
2023/05/20 04:44:27;;;;;;;;;;;;;;;;;;6129538;23;19927;-83
2023/05/20 04:46:56;;;;;;;;;;;;;;;;;;6129370;23;20341;-82
2023/05/20 04:49:27;;;;;;;;;;;;;;;;;;6127181;23;19920;-82
2023/05/20 04:52:02;;;;;;;;;;;;;;;;;;6103753;23;19928;-82
2023/05/20 04:54:29;;;;;;;;;;;;;;;;;;6128787;23;19932;-82
2023/05/20 04:56:56;;;;;;;;;;;;;;;;;;6128560;23;19925;-82
2023/05/20 04:59:27;;;;;;;;;;;;;;;;;;6102615;23;19920;-82
2023/05/20 05:01:57;;;;;;;;;;;;;;;;;;6103906;23;19944;-82
2023/05/20 05:04:26;;;;;;;;;;;;;;;;;;6102760;23;19951;-82
2023/05/20 05:06:53;;;;;;;;;;;;;;;;;;6107050;23;19936;-82
2023/05/20 05:09:20;;;;;;;;;;;;;;;;;;6128296;23;19924;-82
2023/05/20 05:11:49;;;;;;;;;;;;;;;;;;6104179;23;19924;-82
2023/05/20 05:14:16;;;;;;;;;;;;;;;;;;6103676;23;19921;-82
2023/05/20 05:16:45;;;;;;;;;;;;;;;;;;6103369;23;19936;-82
2023/05/20 05:19:15;;;;;;;;;;;;;;;;;;6102222;23;19959;-82
2023/05/20 05:21:43;;;;;;;;;;;;;;;;;;6103329;23;19943;-82
2023/05/20 05:24:12;;;;;;;;;;;;;;;;;;6103476;23;19921;-83
2023/05/20 05:26:40;;;;;;;;;;;;;;;;;;6103763;23;19924;-82
2023/05/20 05:29:07;;;;;;;;;;;;;;;;;;6128078;23;20253;-82
2023/05/20 05:31:34;;;;;;;;;;;;;;;;;;6126662;23;19943;-82
2023/05/20 05:34:02;;;;;;;;;;;;;;;;;;6102276;23;19924;-82
2023/05/20 05:36:32;;;;;;;;;;;;;;;;;;6103638;23;19932;-82
2023/05/20 05:39:02;;;;;;;;;;;;;;;;;;6134547;23;19921;-83
2023/05/20 05:41:32;;;;;;;;;;;;;;;;;;6103199;23;20349;-83
2023/05/20 05:43:59;;;;;;;;;;;;;;;;;;6104693;23;19921;-82
2023/05/20 05:46:28;;;;;;;;;;;;;;;;;;6164351;23;19931;-82
2023/05/20 05:48:58;;;;;;;;;;;;;;;;;;6110199;23;19921;-81
2023/05/20 05:51:29;;;;;;;;;;;;;;;;;;6108502;23;19924;-82
2023/05/20 05:53:58;;;;;;;;;;;;;;;;;;6109859;23;20337;-82
2023/05/20 05:56:31;;;;;;;;;;;;;;;;;;6108936;23;19921;-82
2023/05/20 05:59:00;;;;;;;;;;;;;;;;;;6107427;23;19924;-82
2023/05/20 06:01:28;;;;;;;;;;;;;;;;;;6130657;23;19928;-82
2023/05/20 06:03:57;;;;;;;;;;;;;;;;;;6104992;23;19927;-82
2023/05/20 06:06:24;;;;;;;;;;;;;;;;;;6105996;23;19921;-82
2023/05/20 06:08:52;;;;;;;;;;;;;;;;;;6104971;23;20260;-82
2023/05/20 06:11:20;;;;;;;;;;;;;;;;;;6102760;23;19921;-82
2023/05/20 06:13:51;;;;;;;;;;;;;;;;;;6105648;23;19932;-82
2023/05/20 06:16:19;;;;;;;;;;;;;;;;;;6104988;23;19924;-82
2023/05/20 06:18:49;;;;;;;;;;;;;;;;;;6106051;23;19921;-82
2023/05/20 06:21:19;;;;;;;;;;;;;;;;;;6139076;23;20022;-82
2023/05/20 06:23:46;;;;;;;;;;;;;;;;;;6130030;23;19944;-82
2023/05/20 06:26:17;;;;;;;;;;;;;;;;;;6105831;23;19920;-82
2023/05/20 06:28:50;;;;;;;;;;;;;;;;;;6104293;23;19943;-82
2023/05/20 06:31:17;;;;;;;;;;;;;;;;;;6105318;23;19921;-82
2023/05/20 06:33:47;;;;;;;;;;;;;;;;;;6154067;23;19921;-83
2023/05/20 06:36:15;;;;;;;;;;;;;;;;;;6104924;23;19928;-83
2023/05/20 06:55:51;;;;;;;;;;;;;;;;;;6183826;23;19948;-94
2023/05/20 06:58:19;;;;;;;;;;;;;;;;;;6129908;23;19909;-93
2023/05/20 07:00:51;;;;;;;;;;;;;;;;;;6163793;23;19949;-94
2023/05/20 07:03:19;;;;;;;;;;;;;;;;;;6105444;23;19940;-93
2023/05/20 07:05:55;;;;;;;;;;;;;;;;;;6103502;23;19949;-93
2023/05/20 07:08:24;;;;;;;;;;;;;;;;;;6103746;23;19909;-94
2023/05/20 07:10:55;;;;;;;;;;;;;;;;;;6105061;23;19957;-95
2023/05/20 07:13:23;;;;;;;;;;;;;;;;;;6134288;23;19971;-94
2023/05/20 07:15:56;;;;;;;;;;;;;;;;;;6168407;23;19940;-95
2023/05/20 07:18:28;;;;;;;;;;;;;;;;;;6134302;23;19909;-94
2023/05/20 07:21:00;;;;;;;;;;;;;;;;;;6168613;23;19942;-94
2023/05/20 07:23:50;;;;;;;;;;;;;;;;;;6180625;23;19953;-92
2023/05/20 07:26:19;;;;;;;;;;;;;;;;;;6156577;23;19948;-93
2023/05/20 07:28:46;;;;;;;;;;;;;;;;;;6156080;23;19944;-93
2023/05/20 07:31:14;;;;;;;;;;;;;;;;;;6130517;23;19914;-92
2023/05/20 07:33:44;;;;;;;;;;;;;;;;;;6191470;23;19949;-93
2023/05/20 07:36:12;;;;;;;;;;;;;;;;;;6156870;23;19975;-92
2023/05/20 07:38:43;;;;;;;;;;;;;;;;;;6131206;23;19919;-93
2023/05/20 07:41:11;;;;;;;;;;;;;;;;;;6130902;23;19949;-94
2023/05/20 07:43:42;;;;;;;;;;;;;;;;;;6166650;23;19909;-92
2023/05/20 07:46:15;;;;;;;;;;;;;;;;;;6131387;23;19952;-91
2023/05/20 07:48:50;;;;;;;;;;;;;;;;;;6133075;23;19964;-94
2023/05/20 07:51:20;;;;;;;;;;;;;;;;;;6165373;23;19911;-94
2023/05/20 07:53:52;;;;;;;;;;;;;;;;;;6155985;23;19945;-95
2023/05/20 07:56:23;;;;;;;;;;;;;;;;;;6130127;23;19948;-94
2023/05/20 07:58:53;;;;;;;;;;;;;;;;;;6129703;23;19915;-93
2023/05/20 08:01:21;;;;;;;;;;;;;;;;;;6165812;23;19944;-93
2023/05/20 08:03:52;;;;;;;;;;;;;;;;;;6154754;23;19908;-92
2023/05/20 08:06:23;;;;;;;;;;;;;;;;;;6130430;23;19956;-94
2023/05/20 08:08:58;;;;;;;;;;;;;;;;;;6131853;23;19948;-96
2023/05/20 08:11:31;;;;;;;;;;;;;;;;;;6131523;23;19964;-95
2023/05/20 08:14:03;;;;;;;;;;;;;;;;;;6155858;23;19945;-95
2023/05/20 08:16:38;;;;;;;;;;;;;;;;;;6130708;23;19961;-94
2023/05/20 08:19:05;;;;;;;;;;;;;;;;;;6130084;23;19964;-93
2023/05/20 08:21:36;;;;;;;;;;;;;;;;;;6130786;23;19961;-95
2023/05/20 08:24:09;;;;;;;;;;;;;;;;;;6130988;23;19968;-94
2023/05/20 08:26:37;;;;;;;;;;;;;;;;;;6131323;23;19984;-94
2023/05/20 08:29:07;;;;;;;;;;;;;;;;;;6131053;23;19948;-94
2023/05/20 08:31:35;;;;;;;;;;;;;;;;;;6131741;23;20011;-94
2023/05/20 08:34:05;;;;;;;;;;;;;;;;;;6131150;23;19953;-94
2023/05/20 08:36:33;;;;;;;;;;;;;;;;;;6130283;23;21052;-94
2023/05/20 08:39:03;;;;;;;;;;;;;;;;;;6132142;23;19919;-94
2023/05/20 08:41:32;;;;;;;;;;;;;;;;;;6190699;23;19949;-93
2023/05/20 08:44:00;;;;;;;;;;;;;;;;;;6130855;23;19944;-94
2023/05/20 08:46:29;;;;;;;;;;;;;;;;;;6155950;23;19915;-93
2023/05/20 08:49:06;;;;;;;;;;;;;;;;;;6156727;23;19968;-94
2023/05/20 08:51:34;;;;;;;;;;;;;;;;;;6155354;23;19948;-93
2023/05/20 08:54:01;;;;;;;;;;;;;;;;;;6157003;23;20005;-93
2023/05/20 08:56:31;;;;;;;;;;;;;;;;;;6154980;23;19931;-94
2023/05/20 08:58:58;;;;;;;;;;;;;;;;;;6155873;23;19905;-95
2023/05/20 09:01:28;;;;;;;;;;;;;;;;;;6130565;23;19964;-94
2023/05/20 09:04:00;;;;;;;;;;;;;;;;;;6165429;23;19909;-93
2023/05/20 09:06:28;;;;;;;;;;;;;;;;;;6130883;23;19952;-94
2023/05/20 09:08:59;;;;;;;;;;;;;;;;;;6132082;23;19994;-94
2023/05/20 09:11:29;;;;;;;;;;;;;;;;;;6165009;23;19915;-94
2023/05/20 09:14:27;;;;;;;;;;;;;;;;;;6155108;23;19972;-93
2023/05/20 09:17:25;;;;;;;;;;;;;;;;;;6155550;23;19948;-94
2023/05/20 09:19:57;;;;;;;;;;;;;;;;;;6154963;23;19915;-94
2023/05/20 09:22:24;;;;;;;;;;;;;;;;;;6156626;23;19949;-94
2023/05/20 09:24:53;;;;;;;;;;;;;;;;;;6181500;23;20211;-93
2023/05/20 09:27:26;;;;;;;;;;;;;;;;;;6159279;23;19949;-95
2023/05/20 09:29:53;;;;;;;;;;;;;;;;;;6155815;23;19968;-94
2023/05/20 09:32:27;;;;;;;;;;;;;;;;;;6156088;23;19944;-94
2023/05/20 09:34:55;;;;;;;;;;;;;;;;;;6190934;23;19956;-95
2023/05/20 09:37:24;;;;;;;;;;;;;;;;;;6157504;23;19944;-96
2023/05/20 09:39:55;;;;;;;;;;;;;;;;;;6132953;23;20248;-95
2023/05/20 09:42:25;;;;;;;;;;;;;;;;;;6155864;23;19908;-95
2023/05/20 09:44:53;;;;;;;;;;;;;;;;;;6133926;23;19953;-95
2023/05/20 09:47:20;;;;;;;;;;;;;;;;;;6132293;23;19956;-94
2023/05/20 09:49:49;;;;;;;;;;;;;;;;;;6155772;23;19911;-93
2023/05/20 09:52:16;;;;;;;;;;;;;;;;;;6157511;23;19956;-95
2023/05/20 09:54:47;;;;;;;;;;;;;;;;;;6157766;23;19945;-93
2023/05/20 09:57:18;;;;;;;;;;;;;;;;;;6157127;23;19960;-94
2023/05/20 09:59:45;;;;;;;;;;;;;;;;;;6157471;23;19948;-93
2023/05/20 10:02:13;;;;;;;;;;;;;;;;;;6154935;23;19919;-94
2023/05/20 10:04:42;;;;;;;;;;;;;;;;;;6156835;23;19956;-95
2023/05/20 10:07:18;;;;;;;;;;;;;;;;;;6132083;23;19964;-93
2023/05/20 10:09:53;;;;;;;;;;;;;;;;;;6166598;23;19948;-94
2023/05/20 10:12:28;;;;;;;;;;;;;;;;;;6165539;23;19909;-94
2023/05/20 10:14:58;;;;;;;;;;;;;;;;;;6192445;23;19941;-93
2023/05/20 10:17:26;;;;;;;;;;;;;;;;;;6181488;23;19952;-94
2023/05/20 10:19:57;;;;;;;;;;;;;;;;;;6156838;23;19909;-92
2023/05/20 10:22:28;;;;;;;;;;;;;;;;;;6132364;23;19956;-93
2023/05/20 10:25:00;;;;;;;;;;;;;;;;;;6155729;23;19909;-93
2023/05/20 10:27:29;;;;;;;;;;;;;;;;;;6131820;23;19909;-94
2023/05/20 10:30:02;;;;;;;;;;;;;;;;;;6167271;23;19941;-93
2023/05/20 10:32:31;;;;;;;;;;;;;;;;;;6156891;23;19924;-93
2023/05/20 10:35:04;;;;;;;;;;;;;;;;;;6156231;23;19920;-93
2023/05/20 10:37:34;;;;;;;;;;;;;;;;;;6171916;22;19951;-84
2023/05/20 10:40:09;;;;;;;;;;;;;;;;;;6121887;23;19924;-84
2023/05/20 10:42:37;;;;;;;;;;;;;;;;;;6074145;23;19924;-84
2023/05/20 10:45:04;;;;;;;;;;;;;;;;;;6074292;23;19921;-84
2023/05/20 10:47:32;;;;;;;;;;;;;;;;;;6100775;23;19932;-85
2023/05/20 10:50:00;;;;;;;;;;;;;;;;;;6101509;23;19928;-84
2023/05/20 10:53:06;;;;;;;;;;;;;;;;;;6162486;23;19947;-79
2023/05/20 10:59:54;;;;;;;;;;;;;;;;;;;;;
2023/05/20 11:06:34;;;;;;;;;;;;;;;;;;5966830;24;19929;-81
2023/05/20 11:09:36;;;;;;;;;;;;;;;;;;5984270;23;19929;-81
2023/05/20 11:16:05;;;;;;;;;;;;;;;;;;;;;
2023/05/20 11:18:59;;;;;;;;;;;;;;;;;;6062589;23;20283;-81
2023/05/20 11:21:47;;;;;;;;;;;;;;;;;;6071439;23;20397;-81
2023/05/20 11:24:53;;;;;;;;;;;;;;;;;;;;;
2023/05/20 11:28:12;;;;;;;;;;;;;;;;;;6113577;23;19927;-80
2023/05/20 11:35:40;;;;;;;;;;;;;;;;;;5998731;23;19948;-80
2023/05/20 11:39:00;;;;;;;;;;;;;;;;;;6151442;23;20171;-81
2023/05/20 11:41:29;;;;;;;;;;;;;;;;;;6114248;23;19925;-80
2023/05/20 11:43:57;;;;;;;;;;;;;;;;;;6117821;23;19920;-81
2023/05/20 11:47:03;;;;;;;;;;;;;;;;;;6166563;23;19927;-80
2023/05/20 11:49:30;;;;;;;;;;;;;;;;;;6141432;23;19927;-80
2023/05/20 11:52:02;;;;;;;;;;;;;;;;;;6141804;23;19921;-80
2023/05/20 11:54:30;;;;;;;;;;;;;;;;;;6141626;23;19940;-80
2023/05/20 11:57:30;;;;;;;;;;;;;;;;;;6139687;23;19920;-80
2023/05/20 12:00:12;;;;;;;;;;;;;;;;;;6139111;23;19921;-80
2023/05/20 12:02:49;;;;;;;;;;;;;;;;;;;;;
2023/05/20 12:05:17;;;;;;;;;;;;;;;;;;6164134;23;19921;-80
2023/05/20 12:07:44;;;;;;;;;;;;;;;;;;6141214;23;19920;-80
2023/05/20 12:10:13;;;;;;;;;;;;;;;;;;6120008;23;19921;-81
2023/05/20 12:12:40;;;;;;;;;;;;;;;;;;6117224;23;19921;-80
2023/05/20 12:15:10;;;;;;;;;;;;;;;;;;6144021;23;19927;-80
2023/05/20 12:17:45;;;;;;;;;;;;;;;;;;6142931;23;19924;-80
2023/05/20 12:20:13;;;;;;;;;;;;;;;;;;6140088;23;19920;-81
2023/05/20 12:22:40;;;;;;;;;;;;;;;;;;6142681;23;19924;-81
2023/05/20 12:25:07;;;;;;;;;;;;;;;;;;6142799;23;19920;-81
2023/05/20 12:27:35;;;;;;;;;;;;;;;;;;6143056;23;20299;-81
2023/05/20 12:30:05;;;;;;;;;;;;;;;;;;6168949;23;19930;-81
2023/05/20 12:32:34;;;;;;;;;;;;;;;;;;6168404;23;19927;-81
2023/05/20 12:35:04;;;;;;;;;;;;;;;;;;6143875;23;19925;-81
2023/05/20 12:37:31;;;;;;;;;;;;;;;;;;6143995;23;19926;-81
2023/05/20 12:39:59;;;;;;;;;;;;;;;;;;6144407;23;20117;-81
2023/05/20 12:42:29;;;;;;;;;;;;;;;;;;6144423;23;19925;-81
2023/05/20 12:44:57;;;;;;;;;;;;;;;;;;6144568;23;19920;-81
2023/05/20 12:47:24;;;;;;;;;;;;;;;;;;6117571;23;19946;-81
2023/05/20 12:49:51;;;;;;;;;;;;;;;;;;6142741;23;19920;-81
2023/05/20 12:52:18;;;;;;;;;;;;;;;;;;6168727;23;20371;-81
2023/05/20 12:54:45;;;;;;;;;;;;;;;;;;6142209;23;19926;-81
2023/05/20 12:57:16;;;;;;;;;;;;;;;;;;6145082;23;19920;-81
2023/05/20 12:59:43;;;;;;;;;;;;;;;;;;6169361;23;19921;-81
2023/05/20 13:02:12;;;;;;;;;;;;;;;;;;6119413;23;19934;-82
2023/05/20 13:04:39;;;;;;;;;;;;;;;;;;6142777;23;20266;-82
2023/05/20 13:07:06;;;;;;;;;;;;;;;;;;6118786;23;19927;-82
2023/05/20 13:09:33;;;;;;;;;;;;;;;;;;6121036;23;19927;-81
2023/05/20 13:12:06;;;;;;;;;;;;;;;;;;6145745;23;19921;-80
2023/05/20 13:14:37;;;;;;;;;;;;;;;;;;6148272;23;19921;-80
2023/05/20 13:17:07;;;;;;;;;;;;;;;;;;6146606;23;19927;-80
2023/05/20 13:20:03;;;;;;;;;;;;;;;;;;;;;
2023/05/20 13:23:00;;;;;;;;;;;;;;;;;;6128541;23;19927;-81
2023/05/20 13:25:27;;;;;;;;;;;;;;;;;;6121264;23;19920;-81
2023/05/20 13:27:55;;;;;;;;;;;;;;;;;;6143800;23;19920;-81
2023/05/20 13:30:48;;;;;;;;;;;;;;;;;;6109501;23;19939;-81
2023/05/20 13:33:17;;;;;;;;;;;;;;;;;;6087909;23;20265;-82
2023/05/20 13:35:44;;;;;;;;;;;;;;;;;;6112343;23;19925;-80
2023/05/20 13:38:16;;;;;;;;;;;;;;;;;;6108566;23;19927;-80
2023/05/20 13:40:43;;;;;;;;;;;;;;;;;;6109955;23;19931;-80
2023/05/20 13:43:14;;;;;;;;;;;;;;;;;;6111027;23;19921;-81
2023/05/20 13:45:41;;;;;;;;;;;;;;;;;;6112693;23;19921;-80
2023/05/20 13:48:14;;;;;;;;;;;;;;;;;;6087195;23;19921;-80
2023/05/20 13:50:44;;;;;;;;;;;;;;;;;;6111504;23;19928;-81
2023/05/20 13:53:12;;;;;;;;;;;;;;;;;;6112123;23;20338;-81
2023/05/20 13:55:41;;;;;;;;;;;;;;;;;;6112072;23;19987;-81
2023/05/20 13:58:08;;;;;;;;;;;;;;;;;;6088083;23;19928;-81
2023/05/20 14:00:36;;;;;;;;;;;;;;;;;;6088178;23;19921;-81
2023/05/20 14:03:07;;;;;;;;;;;;;;;;;;6093318;23;19920;-80
2023/05/20 14:05:34;;;;;;;;;;;;;;;;;;6143614;23;19921;-81
2023/05/20 14:08:02;;;;;;;;;;;;;;;;;;6118452;23;19921;-81
2023/05/20 14:10:29;;;;;;;;;;;;;;;;;;6117457;23;19925;-81
2023/05/20 14:13:00;;;;;;;;;;;;;;;;;;6095452;23;19921;-80
2023/05/20 14:15:30;;;;;;;;;;;;;;;;;;6155751;23;19920;-80
2023/05/20 14:17:57;;;;;;;;;;;;;;;;;;6095326;23;19921;-80
2023/05/20 14:20:25;;;;;;;;;;;;;;;;;;6118035;23;19936;-80
2023/05/20 14:22:52;;;;;;;;;;;;;;;;;;6094350;23;19921;-80
2023/05/20 14:25:19;;;;;;;;;;;;;;;;;;6095132;23;19921;-80
2023/05/20 14:27:49;;;;;;;;;;;;;;;;;;6086232;23;20310;-80
2023/05/20 14:30:17;;;;;;;;;;;;;;;;;;6087795;23;19925;-80
2023/05/20 14:32:44;;;;;;;;;;;;;;;;;;6136989;23;19921;-80
2023/05/20 14:35:11;;;;;;;;;;;;;;;;;;6089036;23;19927;-80
2023/05/20 14:37:38;;;;;;;;;;;;;;;;;;6112443;23;19928;-80
2023/05/20 14:40:06;;;;;;;;;;;;;;;;;;6088883;23;19925;-80
2023/05/20 14:42:33;;;;;;;;;;;;;;;;;;6088295;23;19928;-80
2023/05/20 14:45:03;;;;;;;;;;;;;;;;;;6113901;23;19925;-80
2023/05/20 14:47:34;;;;;;;;;;;;;;;;;;6112561;23;19924;-80
2023/05/20 14:50:03;;;;;;;;;;;;;;;;;;6086449;23;19925;-80
2023/05/20 14:52:33;;;;;;;;;;;;;;;;;;6138775;23;19929;-80
2023/05/20 14:55:04;;;;;;;;;;;;;;;;;;6144546;23;19925;-80
2023/05/20 14:57:34;;;;;;;;;;;;;;;;;;6095239;23;19921;-80
2023/05/20 15:00:02;;;;;;;;;;;;;;;;;;6135220;23;19925;-80
2023/05/20 15:02:38;;;;;;;;;;;;;;;;;;6122562;23;19920;-80
2023/05/20 15:05:10;;;;;;;;;;;;;;;;;;6123008;23;19920;-80
2023/05/20 15:07:37;;;;;;;;;;;;;;;;;;6112746;23;19921;-80
2023/05/20 15:10:07;;;;;;;;;;;;;;;;;;6087200;23;19925;-81
2023/05/20 15:12:34;;;;;;;;;;;;;;;;;;6087376;23;19925;-80
2023/05/20 15:15:04;;;;;;;;;;;;;;;;;;6086766;23;19925;-80
2023/05/20 15:17:34;;;;;;;;;;;;;;;;;;6087884;23;19935;-80
2023/05/20 15:20:04;;;;;;;;;;;;;;;;;;6112977;23;19925;-81
2023/05/20 15:22:31;;;;;;;;;;;;;;;;;;6109605;23;19924;-80
2023/05/20 15:24:58;;;;;;;;;;;;;;;;;;6086432;23;19943;-80
2023/05/20 15:27:25;;;;;;;;;;;;;;;;;;6113342;23;19921;-81
2023/05/20 15:29:54;;;;;;;;;;;;;;;;;;6088293;23;20257;-79
2023/05/20 15:32:21;;;;;;;;;;;;;;;;;;6106941;23;19921;-79
2023/05/20 15:35:15;;;;;;;;;;;;;;;;;;6106427;23;19925;-79
2023/05/20 15:37:45;;;;;;;;;;;;;;;;;;6083752;23;19921;-80
2023/05/20 15:40:12;;;;;;;;;;;;;;;;;;6108294;23;19921;-79
2023/05/20 15:42:41;;;;;;;;;;;;;;;;;;6118274;23;19925;-80
2023/05/20 15:45:13;;;;;;;;;;;;;;;;;;6110788;23;20417;-79
2023/05/20 15:47:43;;;;;;;;;;;;;;;;;;6133185;23;19951;-79
2023/05/20 15:50:11;;;;;;;;;;;;;;;;;;6084714;23;19921;-80
2023/05/20 15:52:41;;;;;;;;;;;;;;;;;;6112389;23;19921;-80
2023/05/20 15:55:11;;;;;;;;;;;;;;;;;;6100872;23;19925;-79
2023/05/20 15:57:40;;;;;;;;;;;;;;;;;;6134995;23;19932;-79
2023/05/20 16:00:09;;;;;;;;;;;;;;;;;;6085324;23;19925;-80
2023/05/20 16:02:41;;;;;;;;;;;;;;;;;;6089335;23;19921;-80
2023/05/20 16:05:09;;;;;;;;;;;;;;;;;;6136254;23;19921;-80
2023/05/20 16:07:38;;;;;;;;;;;;;;;;;;6137654;23;19921;-80
2023/05/20 16:10:07;;;;;;;;;;;;;;;;;;6086196;23;19920;-81
2023/05/20 16:12:34;;;;;;;;;;;;;;;;;;6089478;23;19921;-81
2023/05/20 16:15:05;;;;;;;;;;;;;;;;;;6089768;23;19924;-81
2023/05/20 16:17:32;;;;;;;;;;;;;;;;;;6088790;23;19921;-81
2023/05/20 16:19:59;;;;;;;;;;;;;;;;;;6087466;23;19925;-80
2023/05/20 16:22:28;;;;;;;;;;;;;;;;;;6136108;23;19927;-80
2023/05/20 16:24:55;;;;;;;;;;;;;;;;;;6112115;23;19920;-80
2023/05/20 16:27:23;;;;;;;;;;;;;;;;;;6138365;23;19921;-82
2023/05/20 16:29:50;;;;;;;;;;;;;;;;;;6088090;23;19921;-81
2023/05/20 16:32:18;;;;;;;;;;;;;;;;;;6113254;23;19921;-81
2023/05/20 16:34:46;;;;;;;;;;;;;;;;;;6112780;23;19921;-80
2023/05/20 16:37:13;;;;;;;;;;;;;;;;;;6089240;23;19921;-81
2023/05/20 16:39:42;;;;;;;;;;;;;;;;;;6112915;23;19925;-81
2023/05/20 16:42:09;;;;;;;;;;;;;;;;;;6137406;23;19921;-80
2023/05/20 16:44:43;;;;;;;;;;;;;;;;;;6085910;23;19921;-80
2023/05/20 16:47:10;;;;;;;;;;;;;;;;;;6113688;23;19977;-79
2023/05/20 16:49:37;;;;;;;;;;;;;;;;;;6113637;23;19921;-80
2023/05/20 16:52:07;;;;;;;;;;;;;;;;;;6091672;23;19924;-80
2023/05/20 16:54:34;;;;;;;;;;;;;;;;;;6116258;23;19929;-80
2023/05/20 16:57:02;;;;;;;;;;;;;;;;;;6092240;23;19921;-80
2023/05/20 16:59:29;;;;;;;;;;;;;;;;;;6115420;23;19928;-80
2023/05/20 17:01:58;;;;;;;;;;;;;;;;;;6117956;23;19931;-80
2023/05/20 17:04:28;;;;;;;;;;;;;;;;;;6093572;23;19921;-80
2023/05/20 17:06:55;;;;;;;;;;;;;;;;;;6091004;23;19925;-80
2023/05/20 17:09:24;;;;;;;;;;;;;;;;;;6114969;23;19931;-81
2023/05/20 17:11:53;;;;;;;;;;;;;;;;;;6115801;23;19921;-80
2023/05/20 17:14:20;;;;;;;;;;;;;;;;;;6149754;23;19921;-80
2023/05/20 17:16:49;;;;;;;;;;;;;;;;;;6114214;23;20357;-80
2023/05/20 17:19:18;;;;;;;;;;;;;;;;;;6114972;23;19920;-80
2023/05/20 17:21:47;;;;;;;;;;;;;;;;;;6092170;23;19921;-80
2023/05/20 17:24:15;;;;;;;;;;;;;;;;;;6115298;23;19924;-80
2023/05/20 17:26:48;;;;;;;;;;;;;;;;;;6091543;23;19924;-80
2023/05/20 17:29:27;;;;;;;;;;;;;;;;;;6115367;23;19921;-80
2023/05/20 17:31:57;;;;;;;;;;;;;;;;;;6115787;23;19921;-81
2023/05/20 17:34:28;;;;;;;;;;;;;;;;;;6115438;23;19921;-81
2023/05/20 17:36:56;;;;;;;;;;;;;;;;;;6116393;23;19921;-81
2023/05/20 17:39:28;;;;;;;;;;;;;;;;;;6116254;23;19925;-81
2023/05/20 17:41:57;;;;;;;;;;;;;;;;;;6092883;23;20350;-80
2023/05/20 17:44:24;;;;;;;;;;;;;;;;;;6092761;23;19924;-81